ADDS METAR Data INFO
IDs: Format: Raw Decoded Include TAF

Data at: 2211 UTC 24 Jun 2018

KPEX 242155Z AUTO 10013G17KT 10SM SCT021 SCT034 BKN040 25/19 A2995 RMK AO2 T02490186
KPEX 242135Z AUTO 11010G17KT 10SM -RA SCT016 BKN045 OVC100 25/20 A2996 RMK AO2 T02450196
KPEX 242115Z AUTO 11010KT 10SM SCT033 SCT042 BKN100 24/18 A2996 RMK AO2 T02440180
KPEX 242055Z AUTO 10014G18KT 10SM SCT034 BKN110 25/18 A2995 RMK AO2 T02450180
KPEX 242035Z AUTO 11012G17KT 10SM SCT033 SCT039 BKN110 25/18 A2996 RMK AO2 T02490181
KPEX 242015Z AUTO 12008G16KT 10SM SCT033 BKN110 25/18 A2996 RMK AO2 T02470179
KPEX 241955Z AUTO 12012G16KT 10SM SCT033 SCT039 BKN120 26/18 A2996 RMK AO2 T02560183
KPEX 241935Z AUTO 13011G17KT 10SM SCT031 SCT037 BKN075 25/18 A2995 RMK AO2 T02470184
KPEX 241915Z AUTO 13011G16KT 10SM SCT031 BKN037 BKN075 25/18 A2995 RMK AO2 T02490179
KPEX 241855Z AUTO 10011KT 10SM SCT028 BKN037 24/18 A2994 RMK AO2 T02440182
KPEX 241835Z AUTO 11010G17KT 10SM SCT021 SCT026 BKN038 25/19 A2994 RMK AO2 T02450185
KPEX 241815Z AUTO 12013KT 10SM SCT020 BKN024 OVC036 24/19 A2994 RMK AO2 T02370191
KPEX 241755Z AUTO 11008G14KT 10SM SCT017 BKN024 BKN029 23/19 A2995 RMK AO2 60011 T02310192 10232 20183
KPEX 241735Z AUTO 09010G15KT 10SM SCT015 BKN022 BKN029 23/19 A2994 RMK AO2 T02280192
KPEX 241715Z AUTO 09009G14KT 10SM BKN013 BKN018 22/19 A2994 RMK AO2 T02190189
KPEX 241655Z AUTO 10011KT 10SM SCT010 SCT016 21/19 A2994 RMK AO2 T02130187
KPEX 241635Z AUTO 08008KT 10SM CLR 21/19 A2994 RMK AO2 T02050188
KPEX 241615Z AUTO 08006KT 10SM CLR 19/18 A2994 RMK AO2 T01890179
KPEX 241555Z AUTO 08006KT 10SM SCT007 SCT021 BKN027 19/18 A2994 RMK AO2 P0002 T01880180
KPEX 241535Z AUTO 08007KT 7SM -RA SCT007 BKN027 OVC048 19/18 A2994 RMK AO2 P0002 T01860180
KPEX 241515Z AUTO 08006KT 5SM -RA SCT028 BKN040 OVC050 18/18 A2993 RMK AO2 T01830178
KPEX 241455Z AUTO 08007KT 7SM -RA SCT025 BKN040 OVC049 19/18 A2992 RMK AO2 P0006 60009 T01850179
KPEX 241435Z AUTO 10004KT 5SM -RA SCT029 BKN037 OVC060 19/18 A2993 RMK AO2 P0005 T01870180
KPEX 241415Z AUTO 00000KT 5SM RA BKN038 BKN044 OVC050 19/18 A2993 RMK AO2 P0003 T01860178
KPEX 241355Z AUTO 09004KT 7SM -RA SCT034 BKN040 OVC055 19/18 A2992 RMK AO2 P0002 T01870179
KPEX 241335Z AUTO 09005KT 7SM -RA SCT038 BKN048 OVC080 19/18 A2990 RMK AO2 P0002 T01880177
KPEX 241315Z AUTO 10005KT 10SM -RA SCT036 BKN070 OVC080 19/18 A2990 RMK AO2 T01900177
KPEX 241255Z AUTO 10006KT 10SM SCT036 BKN070 OVC120 20/18 A2989 RMK AO2 T01950175
KPEX 241235Z AUTO 10007KT 10SM SCT037 BKN080 OVC120 20/18 A2988 RMK AO2 T01980175
KPEX 241215Z AUTO 10005KT 10SM SCT037 SCT047 OVC070 20/18 A2987 RMK AO2 T01980175
KPEX 241156Z AUTO 08005KT 10SM OVC070 20/17 A2986 RMK AO2 T01970173 10204 20180
KPEX 241135Z AUTO 10003KT 10SM BKN070 OVC120 20/17 A2985 RMK AO2 T01950174
KPEX 241115Z AUTO 11003KT 10SM BKN120 19/17 A2984 RMK AO2 T01880171
KPEX 241056Z AUTO 10003KT 10SM CLR 18/17 A2983 RMK AO2 T01810167
KPEX 241035Z AUTO 11005KT 10SM CLR 18/17 A2983 RMK AO2 T01810166
KPEX 241015Z AUTO 11005KT 10SM CLR 18/17 A2983 RMK AO2 T01840166
KPEX 240955Z AUTO 11006KT 10SM CLR 18/17 A2983 RMK AO2 LTG DSNT W T01830165
KPEX 240935Z AUTO 11006KT 10SM CLR 19/17 A2982 RMK AO2 T01900169
KPEX 240915Z AUTO 14005KT 10SM CLR 19/17 A2982 RMK AO2 T01920170
KPEX 240856Z AUTO 12005KT 10SM CLR 19/17 A2982 RMK AO2 T01900167
KPEX 240835Z AUTO 12006KT 10SM CLR 20/17 A2982 RMK AO2 T01960173
KPEX 240815Z AUTO 13006KT 10SM CLR 20/17 A2982 RMK AO2 T01950173
KPEX 240755Z AUTO 14005KT 10SM CLR 20/17 A2982 RMK AO2 T01950173
KPEX 240735Z AUTO 11004KT 10SM CLR 20/17 A2982 RMK AO2 T01950173
KPEX 240715Z AUTO 14005KT 10SM SCT085 20/17 A2982 RMK AO2 T01950174
KPEX 240656Z AUTO 14004KT 10SM BKN085 19/17 A2982 RMK AO2 T01880167
KPEX 240635Z AUTO 11005KT 10SM CLR 20/17 A2982 RMK AO2 T01960166
KPEX 240615Z AUTO 11005KT 10SM CLR 20/17 A2982 RMK AO2 T01970169
KPEX 240555Z AUTO 14004KT 10SM CLR 20/17 A2981 RMK AO2 T02030171 10241 20203 402710153
KPEX 240535Z AUTO 14005KT 10SM SCT090 21/17 A2981 RMK AO2 T02070171
KPEX 240515Z AUTO 14004KT 10SM BKN090 21/17 A2981 RMK AO2 T02060170
KPEX 240455Z AUTO 13004KT 10SM BKN120 21/17 A2981 RMK AO2 T02070167
KPEX 240435Z AUTO 13004KT 10SM SCT090 BKN120 21/17 A2981 RMK AO2 T02100170
KPEX 240415Z AUTO 13004KT 10SM SCT120 21/17 A2981 RMK AO2 T02100168
KPEX 240355Z AUTO 12004KT 10SM CLR 21/17 A2981 RMK AO2 T02110167
KPEX 240335Z AUTO 12004KT 10SM CLR 22/17 A2981 RMK AO2 T02150166
KPEX 240315Z AUTO 13004KT 10SM CLR 22/17 A2980 RMK AO2 T02150168
KPEX 240255Z AUTO 12004KT 10SM CLR 22/17 A2979 RMK AO2 T02210168
KPEX 240235Z AUTO 13004KT 10SM SCT100 23/17 A2978 RMK AO2 T02270172
KPEX 240215Z AUTO 13004KT 10SM SCT080 OVC100 23/17 A2977 RMK AO2 T02310172
KPEX 240155Z AUTO 15004KT 10SM OVC080 23/17 A2977 RMK AO2 T02340171
KPEX 240135Z AUTO 14004KT 10SM OVC080 24/17 A2977 RMK AO2 T02380172
KPEX 240115Z AUTO 13004KT 10SM BKN080 24/17 A2976 RMK AO2 T02380174
KPEX 240055Z AUTO 13005KT 10SM SCT070 24/17 A2975 RMK AO2 T02400172
KPEX 240035Z AUTO 14005KT 10SM SCT050 BKN070 24/16 A2976 RMK AO2 T02410159
KPEX 240015Z AUTO 15006KT 10SM SCT050 SCT070 23/16 A2976 RMK AO2 T02330160
KPEX 232355Z AUTO 19008KT 10SM SCT048 BKN055 OVC070 24/17 A2975 RMK AO2 T02430165 10271 20243
KPEX 232335Z AUTO 17008KT 10SM SCT046 BKN065 OVC090 26/17 A2974 RMK AO2 T02600167
KPEX 232315Z AUTO 14004KT 10SM BKN046 BKN065 OVC090 26/17 A2974 RMK AO2 T02560170
KPEX 232255Z AUTO 14008KT 10SM SCT048 SCT050 SCT090 27/17 A2975 RMK AO2 T02690168
KPEX 232235Z AUTO 00000KT 10SM CLR 26/16 A2975 RMK AO2 T02590155
KPEX 232215Z AUTO 19005KT 10SM CLR 27/16 A2975 RMK AO2 T02660161
KPEX 232155Z AUTO 18005KT 10SM CLR 27/16 A2974 RMK AO2 T02690157
KPEX 232135Z AUTO 14008KT 10SM SCT060 SCT070 27/16 A2975 RMK AO2 T02660163
KPEX 232115Z AUTO 14004KT 10SM SCT050 SCT060 26/16 A2975 RMK AO2 T02550159
KPEX 232055Z AUTO 14006KT 10SM SCT050 SCT060 SCT085 26/16 A2975 RMK AO2 T02630159
KPEX 232035Z AUTO 00000KT 10SM SCT055 27/16 A2975 RMK AO2 T02650156
KPEX 232015Z AUTO 17004KT 10SM SCT046 26/16 A2976 RMK AO2 T02610159
KPEX 231955Z AUTO 19003KT 10SM SCT085 26/16 A2976 RMK AO2 T02610161
KPEX 231935Z AUTO 16004KT 10SM SCT047 SCT055 SCT085 26/15 A2977 RMK AO2 T02640153
KPEX 231915Z AUTO 22006KT 10SM CLR 26/16 A2977 RMK AO2 T02640158
KPEX 231855Z AUTO 22004KT 10SM SCT049 26/16 A2977 RMK AO2 T02640162
KPEX 231835Z AUTO 16007KT 10SM SCT043 SCT049 SCT085 26/15 A2978 RMK AO2 T02610150
KPEX 231815Z AUTO 00000KT 10SM BKN042 BKN050 BKN060 25/16 A2978 RMK AO2 T02520159
KPEX 231755Z AUTO 22005KT 10SM SCT046 SCT050 SCT070 25/16 A2978 RMK AO2 T02520161 10255 20171
KPEX 231735Z AUTO 00000KT 10SM SCT043 SCT050 SCT060 25/17 A2979 RMK AO2 T02530167
KPEX 231715Z AUTO 22003KT 10SM CLR 25/16 A2979 RMK AO2 T02520161
KPEX 231655Z AUTO 21003KT 10SM CLR 25/16 A2979 RMK AO2 T02460163
KPEX 231635Z AUTO 25003KT 10SM CLR 25/16 A2978 RMK AO2 T02480159
KPEX 231615Z AUTO 20003KT 10SM CLR 24/17 A2979 RMK AO2 T02430165
KPEX 231555Z AUTO 21004KT 10SM CLR 24/16 A2979 RMK AO2 T02420163
KPEX 231535Z AUTO 20004KT 10SM CLR 24/17 A2979 RMK AO2 T02370168
KPEX 231515Z AUTO 22004KT 10SM CLR 24/17 A2979 RMK AO2 T02350169
KPEX 231455Z AUTO 22003KT 10SM CLR 23/18 A2979 RMK AO2 T02330175
KPEX 231435Z AUTO 21005KT 10SM CLR 23/17 A2979 RMK AO2 T02290172
KPEX 231415Z AUTO 19003KT 10SM CLR 23/17 A2979 RMK AO2 T02250173
KPEX 231355Z AUTO 19003KT 10SM CLR 22/18 A2979 RMK AO2 T02170179
KPEX 231335Z AUTO 00000KT 10SM CLR 22/18 A2979 RMK AO2 T02150176
KPEX 231315Z AUTO 00000KT 10SM CLR 21/18 A2979 RMK AO2 T02100175
KPEX 231255Z AUTO 00000KT 10SM CLR 20/18 A2979 RMK AO2 T02030178
KPEX 231235Z AUTO 00000KT 10SM CLR 19/18 A2979 RMK AO2 T01920178
KPEX 231215Z AUTO 00000KT 10SM CLR 18/18 A2979 RMK AO2 T01800175
KPEX 231155Z AUTO 00000KT 10SM CLR 17/17 A2978 RMK AO2 T01700166 10181 20153
KPEX 231135Z AUTO 00000KT 7SM CLR 17/17 A2978 RMK AO2 T01660165
KPEX 231115Z AUTO 00000KT 10SM CLR 16/16 A2978 RMK AO2 T01630161
KPEX 231055Z AUTO 00000KT 10SM CLR 15/15 A2978 RMK AO2 T01530150
KPEX 231035Z AUTO 00000KT 10SM CLR 16/16 A2978 RMK AO2 T01600155
KPEX 231015Z AUTO 00000KT 10SM CLR 16/15 A2979 RMK AO2 T01570151